Weather observations for the past three days for
Owatonna Degner Regional Airport
Metric (Imperial)
Date Time (cdt) Wind (kph) Vis. (km) Weather Sky Cond. Temperature (ºC) Relative Humidity Wind Chill (°C) Heat Index (°C) Pressure Precipitation (cm)
Air Dwpt 6 hour altimeter (cm) sea level (mb) 1 hr 3 hr 6 hr
Max. Min.
04 19:35 NW 39 16.09 Fair and Breezy CLR 10.6 -2.5 40% 75.29 0.0
04 19:15 NW 35 G 46 16.09 Fair and Breezy CLR 11.1 -2.2 40% 75.29 0.0
04 18:55 NW 37 G 48 14.48 Fair and Breezy CLR 11.9 -1.9 39% 75.26 0.0
04 18:35 NW 43 G 52 16.09 Fair and Windy CLR 12.4 -2 37% 75.26 0.0
04 18:15 NW 39 G 50 16.09 A Few Clouds and Breezy FEW065 12.8 -1.4 38% 75.23 0.0
04 17:55 NW 43 G 54 16.09 Partly Cloudy and Windy FEW065 SCT170 13.6 -1.2 36% 75.21 0.0
04 17:35 NW 46 G 59 16.09 Partly Cloudy and Windy SCT170 14.3 -1 35% 75.18 0.0
04 17:15 W 41 G 50 16.09 Fair and Breezy CLR 15.5 -1.4 32% 75.13 0.0
04 16:55 NW 37 G 48 16.09 Fair and Breezy CLR 15.3 -1.2 32% 75.13 0.0
04 16:35 W 43 G 54 16.09 Fair and Windy CLR 15.8 -1.9 30% 75.11 0.0
04 16:15 W 35 G 52 16.09 A Few Clouds and Breezy FEW140 16.2 -1.6 30% 75.11 0.0
04 15:55 W 37 G 54 16.09 A Few Clouds and Breezy FEW140 16.1 -1.1 31% 75.11 0.0
04 15:35 W 44 G 54 16.09 A Few Clouds and Windy FEW130 16.2 -1.5 30% 75.11 0.0
04 15:15 NW 39 G 54 16.09 Partly Cloudy and Breezy SCT140 16.2 -1.9 29% 75.11 0.0
04 14:55 W 44 G 54 16.09 A Few Clouds and Windy FEW150 16.8 -1.2 29% 75.08 0.0
04 14:35 NW 41 G 50 16.09 Partly Cloudy and Breezy FEW140 SCT360 17 -2.9 26% 75.06 0.0
04 14:15 W 35 G 56 16.09 Partly Cloudy and Breezy FEW290 SCT380 16.7 -2.9 26% 75.06 0.0
04 13:55 W 33 G 56 16.09 Partly Cloudy and Breezy FEW310 SCT380 16.9 -2.7 26% 75.06 0.0
04 13:35 NW 43 G 56 16.09 A Few Clouds and Windy FEW320 17.6 -1.2 28% 75.03 0.0
04 13:15 W 33 G 52 14.48 A Few Clouds and Breezy FEW150 16.8 -0.4 31% 75.01 0.0
04 12:55 W 37 G 48 16.09 A Few Clouds and Breezy FEW150 16.5 -1.3 30% 75.01 0.0
04 12:35 NW 37 G 48 16.09 Partly Cloudy and Breezy FEW150 SCT350 SCT370 17.3 0.4 32% 74.98 0.0
04 12:15 NW 39 G 48 16.09 Mostly Cloudy and Breezy SCT150 SCT310 BKN340 17.1 0.2 32% 74.98 0.0
04 11:55 NW 31 G 46 16.09 Mostly Cloudy BKN150 17.7 0.5 32% 74.98 0.0
04 11:35 NW 31 G 39 16.09 Partly Cloudy SCT160 17.2 0.6 33% 74.96 0.0
04 11:15 NW 31 16.09 A Few Clouds FEW170 16.8 0 32% 74.96 0.0
04 10:55 NW 26 G 41 16.09 Fair CLR 17 0.7 33% 74.93 0.0
04 10:35 NW 24 G 35 16.09 Fair CLR 16.9 3.1 40% 74.93 0.0
04 10:15 NW 28 G 41 16.09 Fair CLR 17 4 42% 74.93 0.0
04 09:55 NW 30 16.09 Fair CLR 16.9 4 43% 74.9 0.0
04 09:35 NW 30 16.09 Fair CLR 16.8 4.4 44% 74.88 0.0
04 09:15 W 26 16.09 Fair CLR 16.1 4.3 46% 74.9 0.0
04 08:55 NW 33 G 43 16.09 Fair and Breezy CLR 16 4.1 45% 74.9 0.0
04 08:35 W 28 16.09 Fair CLR 15.3 3.9 47% 74.88 0.0
04 08:15 W 24 16.09 Fair CLR 14.5 3.5 48% 74.9 0.0
04 07:55 W 26 G 43 16.09 A Few Clouds FEW100 14.7 3.2 46% 74.9 0.0
04 07:35 SW 26 16.09 Mostly Cloudy BKN100 14.5 3.1 47% 74.85 0.0
04 07:15 SW 28 16.09 Mostly Cloudy BKN100 13.7 2.6 47% 74.83 0.0
04 06:55 SW 28 16.09 A Few Clouds FEW110 12.7 2.2 49% 74.8 0.0
04 06:35 SW 26 16.09 Fair CLR 11.9 1.8 50% 74.8 0.0
04 06:15 SW 26 16.09 Fair CLR 11.7 1.7 51% 74.83 0.0
04 05:55 SW 22 16.09 Fair CLR 10.7 1.8 54% 74.85 0.0
04 05:35 SW 24 16.09 Fair CLR 10.4 1.5 54% 74.88 0.0
04 05:15 SW 19 16.09 Fair CLR 9.7 1.4 57% 7 74.9 0.0
04 04:55 SW 22 16.09 Fair CLR 9.8 1.3 56% 7 74.9 0.0
04 04:35 SW 22 16.09 Fair CLR 10 1 54% 7 74.93 0.0
04 04:15 SW 19 16.09 Fair CLR 10.2 0.9 53% 74.96 0.0
04 03:55 SW 19 16.09 Fair CLR 10.1 1 54% 74.96 0.0
04 03:35 SW 17 16.09 Fair CLR 10.8 0.9 51% 74.98 0.0
04 03:15 SW 19 16.09 Fair CLR 10.7 0.9 51% 75.01 0.0
04 02:55 S 20 16.09 Fair CLR 10.3 0.6 51% 75.01 0.0
04 02:35 SW 17 16.09 Fair CLR 10.2 0.6 52% 75.06 0.0
04 02:15 S 19 16.09 Fair CLR 10.6 0.2 49% 75.08 0.0
04 01:55 S 19 16.09 Fair CLR 10.7 0 48% 75.11 0.0
04 01:35 S 20 16.09 Fair CLR 12.1 -0.5 42% 75.11 0.0
04 01:15 S 17 16.09 Fair CLR 11.9 -0.3 43% 75.16 0.0
04 00:55 S 19 16.09 Fair CLR 11.9 -0.2 44% 75.18 0.0
04 00:35 S 19 16.09 Fair CLR 12.3 -0.4 42% 75.18 0.0
04 00:15 S 17 14.48 Fair CLR 12.2 -0.1 43% 75.23 0.0
03 23:55 S 15 16.09 Fair CLR 12.4 -0.1 42% 75.23 0.0
03 23:35 S 15 16.09 Fair CLR 12.5 0.2 43% 75.26 0.0
03 23:15 S 15 16.09 Fair CLR 13.3 0.3 41% 75.29 0.0
03 22:55 S 15 8.05 Fair with Haze CLR 13.2 0.1 41% 75.31 0.0
03 22:35 S 15 16.09 Fair CLR 12.7 -0.3 41% 75.34 0.0
03 22:15 S 13 16.09 Fair CLR 13.4 -0.3 39% 75.34 0.0
03 21:55 SW 11 16.09 Fair CLR 13.8 -0.4 38% 75.36 0.0
03 21:35 SW 9 16.09 Fair CLR 12.9 -0.5 40% 75.36 0.0
03 21:15 SW 6 14.48 Fair CLR 12.4 -0.6 41% 75.36 0.0
03 20:55 W 9 11.27 A Few Clouds FEW320 14.4 1.6 42% 75.39 0.0
03 20:35 W 11 9.66 A Few Clouds with Haze FEW320 15.4 0.4 36% 75.36 0.0
03 20:15 W 15 14.48 Fair CLR 16.7 -0.5 31% 75.36 0.0
03 19:55 W 15 14.48 Fair CLR 17.9 -0.7 29% 75.36 0.0
03 19:35 W 22 14.48 Fair CLR 19.4 -1.1 25% 75.36 0.0
03 19:15 NW 20 16.09 Fair CLR 19.8 -1.3 24% 75.39 0.0
03 18:55 W 22 16.09 Fair CLR 20.2 -1.8 23% 75.39 0.0
03 18:35 W 22 16.09 Fair CLR 20.6 -1.9 22% 75.39 0.0
03 18:15 W 22 16.09 Fair CLR 20.7 -0.9 24% 75.39 0.0
03 17:55 W 24 16.09 Fair CLR 21.2 -1.4 22% 75.39 0.0
03 17:35 NW 22 16.09 Fair CLR 20.8 -0.5 24% 75.41 0.0
03 17:15 NW 28 16.09 Fair CLR 21 -2 21% 75.39 0.0
03 16:55 NW 19 16.09 Fair CLR 21 -0.1 25% 75.41 0.0
03 16:35 NW 31 16.09 Fair CLR 21.4 -0.8 23% 75.41 0.0
03 16:15 NW 24 G 35 16.09 Fair CLR 21.3 -0.2 24% 75.41 0.0
03 15:55 NW 30 16.09 Fair CLR 21.3 -1.1 22% 75.44 0.0
03 15:35 NW 26 16.09 Fair CLR 20.9 0.5 26% 75.46 0.0
03 15:15 NW 30 G 50 16.09 Fair CLR 21.2 1.2 27% 75.46 0.0
03 14:55 NW 30 G 43 16.09 Fair CLR 21.2 0.8 26% 75.46 0.0
03 14:35 NW 26 G 39 16.09 Fair CLR 20.8 0.5 26% 75.46 0.0
03 14:15 NW 28 G 41 16.09 Fair CLR 20.6 0.7 27% 75.49 0.0
03 13:55 N 22 G 43 16.09 Fair CLR 20.3 1.6 29% 75.49 0.0
03 13:35 NW 30 G 46 16.09 Fair CLR 20.3 2 30% 75.49 0.0
03 13:15 NW 22 G 43 16.09 Fair CLR 20.1 1.2 28% 75.51 0.0
03 12:55 NW 31 16.09 Fair CLR 19.8 1 29% 75.51 0.0
03 12:35 N 30 G 41 16.09 Fair CLR 19.7 2.1 31% 75.51 0.0
03 12:15 NW 31 G 43 16.09 Fair CLR 19.2 2.7 34% 75.51 0.0
03 11:55 NW 30 16.09 Fair CLR 18.8 2.9 35% 75.51 0.0
03 11:35 NW 28 G 43 16.09 Fair CLR 18.6 3.6 37% 75.51 0.0
03 11:15 N 26 G 41 16.09 Fair CLR 18 3.4 38% 75.51 0.0
03 10:55 N 33 16.09 Fair and Breezy CLR 17.2 3.5 40% 75.51 0.0
03 10:35 N 26 G 37 16.09 Fair CLR 16.6 3.8 43% 75.51 0.0
03 10:15 N 28 16.09 Fair CLR 16 3.8 44% 75.49 0.0
03 09:55 NW 26 16.09 Fair CLR 15.3 3.8 46% 75.46 0.0
03 09:35 NW 20 16.09 Fair CLR 14.7 4.1 49% 75.46 0.0
03 09:15 NW 20 16.09 Fair CLR 14.3 3.5 49% 75.46 0.0
03 08:55 W 22 16.09 Fair CLR 13.7 2.9 48% 75.46 0.0
03 08:35 W 20 16.09 Fair CLR 13.3 2.6 49% 75.44 0.0
03 08:15 W 20 16.09 Fair CLR 13.3 1.8 46% 75.44 0.0
03 07:55 SW 20 16.09 Fair CLR 12.7 1 45% 75.44 0.0
03 07:35 SW 19 16.09 Fair CLR 12.1 1 47% 75.41 0.0
03 07:15 SW 20 16.09 Fair CLR 11.2 0.9 49% 75.41 0.0
03 06:55 S 19 16.09 Fair CLR 10.6 0.6 50% 75.39 0.0
03 06:35 S 20 16.09 Fair CLR 10.2 0.3 51% 75.39 0.0
03 06:15 S 20 16.09 Fair CLR 10.4 0 49% 75.39 0.0
03 05:55 S 20 14.48 Fair CLR 10.9 -0.3 46% 75.39 0.0
03 05:35 S 24 16.09 A Few Clouds FEW100 11.3 -0.2 45% 75.41 0.0
03 05:15 S 20 16.09 Mostly Cloudy BKN100 12 0.6 46% 75.41 0.0
03 04:55 S 26 G 33 16.09 Overcast OVC100 12.4 1.1 46% 75.44 0.0
03 04:35 S 22 16.09 Mostly Cloudy BKN100 12.6 1.5 47% 75.44 0.0
03 04:15 S 24 16.09 Overcast OVC090 13.1 1.5 46% 75.46 0.0
03 03:55 S 19 16.09 Overcast OVC095 13.5 1.1 43% 75.46 0.0
03 03:35 S 24 G 39 16.09 Overcast OVC095 13.7 0.4 40% 75.49 0.0
03 03:15 S 26 16.09 Overcast BKN100 OVC120 13.4 -0.6 38% 75.49 0.0
03 02:55 S 24 16.09 Overcast BKN095 OVC120 13.2 -1.3 37% 75.51 0.0
03 02:35 S 22 16.09 Overcast OVC095 13.7 -1.1 36% 75.59 0.0
03 02:15 S 19 16.09 Overcast OVC100 13.1 0 41% 75.64 0.0
03 01:55 SW 19 16.09 Overcast OVC095 13.9 -0.6 37% 75.67 0.0
03 01:35 SW 24 16.09 Overcast OVC100 14.2 -0.3 37% 75.67 0.0
03 01:15 SW 26 16.09 Overcast OVC100 14.1 -1 36% 75.67 0.0
03 00:55 SW 28 16.09 Overcast BKN100 OVC130 14.2 -1.1 35% 75.69 0.0
03 00:35 SW 24 16.09 Mostly Cloudy SCT100 BKN120 14.8 -1.2 34% 75.69 0.0
03 00:15 SW 24 16.09 Mostly Cloudy FEW090 BKN110 BKN150 14.8 -0.8 35% 75.69 0.0
02 23:55 SW 17 16.09 Mostly Cloudy BKN100 13.2 0.9 43% 75.72 0.0
02 23:35 SW 15 16.09 Overcast OVC095 13.4 0.5 42% 75.74 0.0
02 23:15 SW 15 14.48 Mostly Cloudy BKN090 12.8 0.9 44% 75.77 0.0
02 22:55 S 9 16.09 Partly Cloudy FEW100 SCT150 13.9 0.5 40% 75.77 0.0
02 22:35 S 13 14.48 Overcast BKN100 OVC120 13.7 0.9 42% 75.77 0.0
02 22:15 SW 15 16.09 Overcast BKN100 OVC120 15.5 -0.3 34% 75.82 0.0
02 21:55 W 22 16.09 Mostly Cloudy SCT085 BKN110 15.7 -0.5 33% 75.84 0.0
02 21:35 W 22 16.09 Mostly Cloudy BKN080 16 -0.7 32% 75.87 0.0
02 21:15 W 19 16.09 Overcast BKN080 OVC090 16.2 -0.6 32% 75.87 0.0
02 20:55 W 17 G 31 16.09 Overcast BKN080 OVC095 16.2 -0.6 32% 75.87 0.0
02 20:35 W 19 16.09 Overcast BKN090 OVC100 16.5 -0.9 31% 75.87 0.0
02 20:15 SW 15 12.87 Overcast OVC080 16.3 -0.9 31% 75.87 0.0
02 19:55 SW 17 14.48 Overcast SCT080 OVC095 16.4 -1.1 30% 75.84 0.0
02 19:35 SW 17 14.48 Overcast SCT090 OVC120 16.8 -1.4 29% 75.87 0.0
02 19:15 SW 19 12.87 Mostly Cloudy BKN120 17 -1.3 29% 75.87 0.0
02 18:55 SW 20 14.48 Mostly Cloudy SCT130 BKN150 17.7 -1.8 27% 75.9 0.0
02 18:35 SW 19 14.48 Mostly Cloudy BKN130 18 -1.8 26% 75.9 0.0
02 18:15 SW 20 16.09 A Few Clouds FEW150 18.2 -2.1 25% 75.92 0.0
02 17:55 W 17 G 31 16.09 Partly Cloudy SCT150 18.4 -2.3 25% 75.92 0.0
02 17:35 SW 20 G 31 16.09 Partly Cloudy SCT150 18.5 -2.4 24% 75.95 0.0
02 17:15 W 20 16.09 Fair CLR 18.3 -2.4 25% 75.95 0.0
02 16:55 SW 20 16.09 Fair CLR 18.2 -2.5 25% 75.97 0.0
02 16:35 W 24 G 30 16.09 Fair CLR 18 -2.3 25% 76 0.0
02 16:15 W 20 16.09 A Few Clouds FEW100 18.1 -2 26% 76.02 0.0
02 15:55 W 17 16.09 A Few Clouds FEW100 17.4 -2.4 26% 76.05 0.0
02 15:35 W 26 16.09 A Few Clouds FEW100 17.4 -2.3 26% 76.07 0.0
02 15:15 SW 17 16.09 A Few Clouds FEW100 16.8 -2.9 26% 76.1 0.0
02 14:55 W 22 16.09 Fair CLR 17.2 -2.7 26% 76.12 0.0
02 14:35 SW 15 G 37 16.09 Fair CLR 16.4 -3.3 26% 76.15 0.0
02 14:15 W 17 G 33 16.09 Fair CLR 15.8 -2.9 28% 76.17 0.0
02 13:55 NW 13 16.09 Fair CLR 15 -3.6 28% 76.2 0.0
02 13:35 NW 7 G 33 16.09 A Few Clouds FEW090 15.1 -3.1 29% 76.23 0.0
02 13:15 NW 17 16.09 A Few Clouds FEW090 14.6 -3.2 29% 76.25 0.0
02 12:55 SW 20 G 33 16.09 A Few Clouds FEW090 15.2 -4.5 26% 76.28 0.0
02 12:35 W 22 G 30 16.09 Fair CLR 14.5 -4.7 26% 76.3 0.0
02 12:15 W 15 G 33 16.09 Fair CLR 14.2 -4.4 27% 76.33 0.0
02 11:55 W 22 G 30 16.09 Fair CLR 13.7 -4.8 28% 76.35 0.0
02 11:35 W 26 G 39 16.09 Fair CLR 13.5 -4 30% 76.35 0.0
02 11:15 W 24 16.09 Fair CLR 12.7 -4.3 31% 76.38 0.0
02 10:55 W 20 G 31 16.09 Fair CLR 12.3 -4.2 32% 76.4 0.0
02 10:35 W 22 G 30 16.09 Fair CLR 12 -4 33% 76.4 0.0
02 10:15 W 17 16.09 Fair CLR 11.7 -3.1 36% 76.4 0.0
02 09:55 W 17 G 31 16.09 Fair CLR 11.2 -2.8 38% 76.4 0.0
02 09:35 W 19 16.09 Fair CLR 10.7 -2.4 40% 76.43 0.0
02 09:15 W 17 16.09 Fair CLR 9.9 -1.9 44% 8 76.45 0.0
02 08:55 W 17 16.09 Fair CLR 8.8 -1.8 48% 7 76.45 0.0
02 08:35 W 15 16.09 Fair CLR 7.6 -1.6 52% 5 76.45 0.0
02 08:15 W 15 14.48 Fair CLR 6.8 -1.5 56% 4 76.45 0.0
02 07:55 W 11 16.09 Fair CLR 5.1 -1.4 63% 3 76.45 0.0
02 07:35 W 9 14.48 Fair CLR 3.8 -2.2 65% 2 76.45 0.0
02 07:15 SW 7 14.48 Fair CLR 2.7 -2.6 68% 1 76.43 0.0
02 06:55 SW 13 12.87 Fair CLR 2.2 -3.2 68% -1 76.43 0.0
02 06:35 SW 11 12.87 Fair CLR 1.4 -3.5 70% -2 76.43 0.0
02 06:15 SW 9 12.87 Fair CLR 0.2 -3.8 75% -3 76.43 0.0
02 05:55 SW 9 12.87 Fair CLR -0.2 -3.8 77% -3 76.43 0.0
02 05:35 SW 11 14.48 Fair CLR 0 -3.9 75% -3 76.43 0.0
02 05:15 SW 9 14.48 Fair CLR 0.1 -4 74% -3 76.43 0.0
02 04:55 SW 11 14.48 Fair CLR 0.3 -4.2 72% -3 76.43 0.0
02 04:35 SW 11 14.48 A Few Clouds FEW080 0.2 -4.1 73% -3 76.43 0.0
02 04:15 SW 9 16.09 Mostly Cloudy BKN080 -0.1 -4.3 74% -3 76.43 0.0
02 03:55 SW 7 12.87 Fair CLR 0.7 -4.3 70% -1 76.43 0.0
02 03:35 S 9 16.09 Fair CLR 0.9 -4.4 68% -2 76.4 0.0
02 03:15 SW 7 14.48 Fair CLR 0.7 -4.2 70% -1 76.4 0.0
02 02:55 SW 7 14.48 Fair CLR 0.4 -4.2 72% -2 76.4 0.0
02 02:35 SW 7 14.48 Fair CLR 1.1 -4.2 68% -1 76.4 0.0
02 02:15 S 9 14.48 Fair CLR 2 -4.5 62% -0 76.43 0.0
02 01:55 S 7 14.48 Fair CLR 1.3 -4.3 67% -1 76.43 0.0
02 01:35 S 6 14.48 Fair CLR 1.8 -3.7 67% 76.45 0.0
02 01:15 Calm 12.87 Fair CLR 1.4 -3.7 69% 76.45 0.0
02 00:55 Calm 14.48 Fair CLR 1.9 -3.8 66% 76.45 0.0
02 00:35 Calm 14.48 Fair CLR 1.8 -4 66% 76.43 0.0
02 00:15 SW 6 14.48 Fair CLR 1.7 -4.4 64% 76.43 0.0
01 23:55 S 6 14.48 Fair CLR 1.6 -4.4 65% 76.43 0.0
01 23:35 Calm 14.48 Fair CLR 1.3 -4.2 67% 76.43 0.0
01 23:15 Calm 14.48 Fair CLR 2.5 -5.1 58% 76.43 0.0
01 22:55 SW 7 14.48 Fair CLR 2.6 -5.5 56% 1 76.43 0.0
01 22:35 W 6 12.87 Fair CLR 1.7 -5.1 61% 76.43 0.0
01 22:15 Calm 12.87 Fair CLR 3.5 -5.8 51% 76.43 0.0
01 21:55 W 6 16.09 Partly Cloudy SCT080 3.5 -5.9 51% 76.43 0.0
01 21:35 Calm 16.09 Partly Cloudy SCT080 3.1 -5.6 53% 76.43 0.0
01 21:15 Calm 14.48 Partly Cloudy SCT080 5.6 -5.4 45% 76.4 0.0
01 20:55 NW 6 14.48 Mostly Cloudy BKN080 6.7 -5.1 43% 76.4 0.0
01 20:35 N 7 14.48 Partly Cloudy SCT080 6.6 -5.4 42% 5 76.38 0.0
01 20:15 NW 9 12.87 Mostly Cloudy BKN075 7 -5.2 42% 5 76.38 0.0
01 19:55 N 13 12.87 Mostly Cloudy BKN075 8.2 -5.8 37% 6 76.38 0.0
Date Time (cdt) Wind (kph) Vis. (km) Weather Sky Cond. Air Dwpt Max. Min. Relative Humidity Wind Chill (°C) Heat Index (°C) altimeter (cm) sea level (mb) 1 hr 3 hr 6 hr
6 hour
Temperature (ºC) Pressure Precipitation (cm)